Time;durP1;ratioP1;P1;durP2;ratioP2;P2;SDS_P1;SDS_P2;PMS_P1;PMS_P2;Temp;Humidity;BMP_temperature;BMP_pressure;BME280_temperature;BME280_humidity;BME280_pressure;Samples;Min_cycle;Max_cycle;Signal;HPM_P1;HPM_P2
2021/08/19 00:02:15;;;;;;;3.73;0.90;;;;;;;14.56;68.63;99967.25;125817;1093;22781;-55
2021/08/19 00:04:47;;;;;;;2.90;0.90;;;;;;;14.53;68.73;99968.27;125885;1093;24180;-57
2021/08/19 00:07:18;;;;;;;5.03;0.70;;;;;;;14.50;69.00;99972.86;125806;1092;27197;-56
2021/08/19 00:09:51;;;;;;;4.20;1.00;;;;;;;14.49;69.31;99973.38;125815;1093;22787;-55
2021/08/19 00:12:22;;;;;;;7.30;1.10;;;;;;;14.49;69.08;99959.34;125834;1093;25520;-57
2021/08/19 00:14:54;;;;;;;8.65;1.00;;;;;;;14.48;69.44;99963.44;125770;1093;26248;-57
2021/08/19 00:17:25;;;;;;;6.97;0.87;;;;;;;14.45;69.78;99967.26;125745;1093;26327;-55
2021/08/19 00:19:57;;;;;;;4.45;0.75;;;;;;;14.45;69.95;99965.22;126064;1093;22781;-55
2021/08/19 00:22:30;;;;;;;4.10;0.80;;;;;;;14.44;70.28;99962.94;126207;1093;26242;-56
2021/08/19 00:25:02;;;;;;;7.80;1.05;;;;;;;14.43;69.77;99967.00;125732;1092;22784;-54
2021/08/19 00:27:34;;;;;;;3.65;0.75;;;;;;;14.44;70.14;99972.10;125807;1093;22788;-57
2021/08/19 00:30:07;;;;;;;5.60;1.00;;;;;;;14.45;70.13;99964.45;125762;1093;22758;-57
2021/08/19 00:32:38;;;;;;;6.30;1.25;;;;;;;14.48;70.13;99963.44;125836;1093;22735;-58
2021/08/19 00:35:11;;;;;;;3.90;0.80;;;;;;;14.50;69.96;99969.31;125676;1093;22790;-56
2021/08/19 00:37:43;;;;;;;4.25;0.75;;;;;;;14.52;70.59;99964.69;125822;1093;22784;-57
2021/08/19 00:40:17;;;;;;;4.63;1.03;;;;;;;14.53;70.17;99966.23;126033;1093;22841;-56
2021/08/19 00:42:49;;;;;;;3.53;0.87;;;;;;;14.55;70.34;99969.29;125810;1093;22918;-56
2021/08/19 00:45:21;;;;;;;5.30;0.90;;;;;;;14.56;70.65;99965.22;125740;1091;22823;-58
2021/08/19 00:47:53;;;;;;;7.23;0.80;;;;;;;14.60;70.72;99967.76;125800;1093;22760;-55
2021/08/19 00:50:26;;;;;;;8.95;1.00;;;;;;;14.64;70.64;99973.88;125872;1093;26353;-56
2021/08/19 00:52:58;;;;;;;8.50;1.00;;;;;;;14.66;70.58;99968.51;125841;1092;22796;-57
2021/08/19 00:55:30;;;;;;;5.85;0.85;;;;;;;14.69;70.84;99970.27;125978;1093;23149;-57
2021/08/19 00:58:02;;;;;;;5.25;0.90;;;;;;;14.72;70.55;99979.73;125817;1093;26230;-59
2021/08/19 01:00:35;;;;;;;8.00;0.90;;;;;;;14.74;70.86;99966.70;125922;1093;22815;-57
2021/08/19 01:03:08;;;;;;;3.60;1.10;;;;;;;14.76;71.17;99974.61;125774;1093;22787;-58
2021/08/19 01:05:41;;;;;;;7.43;0.73;;;;;;;14.78;71.18;99975.63;125721;1092;22759;-54
2021/08/19 01:08:12;;;;;;;4.70;0.80;;;;;;;14.79;71.12;99979.22;125725;1093;24607;-55
2021/08/19 01:10:45;;;;;;;4.00;0.90;;;;;;;14.79;71.18;99968.75;125891;1093;27444;-55
2021/08/19 01:13:17;;;;;;;5.63;0.90;;;;;;;14.80;70.83;99981.50;125878;1092;27635;-57
2021/08/19 01:15:50;;;;;;;3.50;0.77;;;;;;;14.81;71.19;99969.00;125764;1093;22922;-59
2021/08/19 01:18:22;;;;;;;6.40;0.80;;;;;;;14.82;71.16;99969.73;125789;1093;22815;-55
2021/08/19 01:20:57;;;;;;;7.25;1.00;;;;;;;14.82;71.13;99967.70;125946;1092;22812;-57
2021/08/19 01:23:29;;;;;;;3.90;0.80;;;;;;;14.82;70.79;99972.55;125869;1093;22754;-56
2021/08/19 01:26:03;;;;;;;7.00;0.90;;;;;;;14.81;71.08;99965.41;125772;1093;22784;-57
2021/08/19 01:28:36;;;;;;;4.85;0.90;;;;;;;14.81;71.11;99977.42;125917;1092;22761;-57
2021/08/19 01:31:08;;;;;;;2.85;0.70;;;;;;;14.80;70.86;99964.64;125936;1093;22794;-57
2021/08/19 01:33:44;;;;;;;4.00;0.80;;;;;;;14.79;70.89;99970.78;125837;1093;22760;-53
2021/08/19 01:36:17;;;;;;;4.70;0.90;;;;;;;14.78;71.35;99972.05;125839;1092;22795;-55
2021/08/19 01:38:49;;;;;;;5.63;0.77;;;;;;;14.75;70.92;99959.05;125752;1093;22815;-55
2021/08/19 01:41:21;;;;;;;4.77;1.70;;;;;;;14.71;71.05;99967.72;125739;1092;22770;-54
2021/08/19 01:43:54;;;;;;;4.70;0.90;;;;;;;14.68;71.35;99965.18;125968;1093;22745;-58
2021/08/19 01:46:26;;;;;;;4.83;0.70;;;;;;;14.66;70.81;99965.70;125900;1093;22785;-54
2021/08/19 01:48:57;;;;;;;3.70;1.00;;;;;;;14.64;71.10;99967.48;125861;1092;22781;-56
2021/08/19 01:51:28;;;;;;;5.27;1.03;;;;;;;14.60;71.21;99967.76;125803;1093;22784;-56
2021/08/19 01:54:00;;;;;;;4.60;1.10;;;;;;;14.59;71.41;99966.21;125904;1091;22788;-56
2021/08/19 01:56:31;;;;;;;4.83;0.90;;;;;;;14.57;71.17;99963.92;125837;1093;27647;-57
2021/08/19 01:59:03;;;;;;;7.25;1.00;;;;;;;14.55;71.28;99965.71;125848;1093;22761;-58
2021/08/19 02:01:34;;;;;;;4.90;1.10;;;;;;;14.52;71.48;99966.75;125861;1093;22781;-56
2021/08/19 02:04:06;;;;;;;3.90;0.80;;;;;;;14.51;71.16;99957.55;125812;1093;25861;-58
2021/08/19 02:06:38;;;;;;;2.70;0.65;;;;;;;14.49;71.07;99954.49;125848;1093;22788;-58
2021/08/19 02:09:09;;;;;;;3.95;0.90;;;;;;;14.46;71.30;99957.56;125800;1093;22798;-54
2021/08/19 02:11:40;;;;;;;3.70;0.90;;;;;;;14.44;71.18;99958.06;125811;1092;27204;-58
2021/08/19 02:14:12;;;;;;;4.50;0.70;;;;;;;14.42;71.23;99957.06;125797;1093;22762;-58
2021/08/19 02:16:44;;;;;;;4.87;1.07;;;;;;;14.39;71.22;99958.08;126063;1093;22799;-55
2021/08/19 02:19:15;;;;;;;3.07;0.77;;;;;;;14.37;71.37;99955.02;125813;1093;22792;-56
2021/08/19 02:21:47;;;;;;;3.45;0.95;;;;;;;14.34;71.26;99956.80;125763;1093;26232;-57
2021/08/19 02:24:18;;;;;;;5.77;0.90;;;;;;;14.31;71.33;99957.06;125792;1093;22790;-57
2021/08/19 02:26:50;;;;;;;5.50;1.10;;;;;;;14.27;71.56;99950.91;125820;1093;22837;-57
2021/08/19 02:29:21;;;;;;;2.30;0.70;;;;;;;14.25;71.81;99948.63;125839;1092;22860;-57
2021/08/19 02:31:53;;;;;;;3.57;0.80;;;;;;;14.22;71.70;99948.86;125950;1093;25967;-56
2021/08/19 02:34:24;;;;;;;2.60;0.70;;;;;;;14.19;72.00;99953.48;125820;1093;27185;-56
2021/08/19 02:36:55;;;;;;;3.77;0.90;;;;;;;14.20;72.22;99952.19;125975;1093;22758;-57
2021/08/19 02:39:27;;;;;;;3.65;0.90;;;;;;;14.19;71.98;99950.67;125923;1092;22761;-56
2021/08/19 02:41:59;;;;;;;3.53;0.90;;;;;;;14.21;72.11;99952.95;126230;1093;23499;-58
2021/08/19 02:44:31;;;;;;;4.03;0.90;;;;;;;14.22;72.20;99941.21;126483;1093;22757;-57
2021/08/19 02:47:02;;;;;;;4.87;0.90;;;;;;;14.25;72.36;99942.23;126268;1092;22804;-54
2021/08/19 02:49:34;;;;;;;6.00;1.00;;;;;;;14.28;72.64;99941.20;126541;1093;22870;-54
2021/08/19 02:52:07;;;;;;;5.05;1.10;;;;;;;14.29;72.25;99943.55;126180;1093;24582;-57
2021/08/19 02:54:39;;;;;;;2.45;0.80;;;;;;;14.31;72.43;99935.38;126474;1093;22848;-57
2021/08/19 02:57:11;;;;;;;5.37;1.07;;;;;;;14.32;72.34;99936.89;126196;1092;22816;-54
2021/08/19 02:59:42;;;;;;;4.35;0.90;;;;;;;14.34;72.53;99933.56;126362;1092;22813;-53
2021/08/19 03:02:17;;;;;;;5.05;0.80;;;;;;;14.34;72.74;99930.75;126201;1092;22806;-55
2021/08/19 03:04:50;;;;;;;4.37;1.30;;;;;;;14.36;72.60;99931.03;126419;1092;26278;-57
2021/08/19 03:07:23;;;;;;;3.80;1.00;;;;;;;14.37;72.87;99926.93;126276;1093;24202;-57
2021/08/19 03:09:54;;;;;;;3.80;0.90;;;;;;;14.37;72.98;99927.70;126168;1093;22787;-54
2021/08/19 03:12:26;;;;;;;3.40;1.00;;;;;;;14.39;73.02;99935.61;126232;1092;26251;-59
2021/08/19 03:14:57;;;;;;;3.70;1.10;;;;;;;14.40;72.94;99928.73;126291;1093;25749;-57
2021/08/19 03:17:29;;;;;;;3.60;0.90;;;;;;;14.42;73.14;99928.98;126278;1093;26253;-56
2021/08/19 03:20:01;;;;;;;3.93;1.10;;;;;;;14.44;73.30;99929.97;126204;1092;26278;-58
2021/08/19 03:22:33;;;;;;;7.25;1.05;;;;;;;14.45;73.03;99931.52;126255;1093;22778;-56
2021/08/19 03:25:07;;;;;;;4.17;1.10;;;;;;;14.48;73.33;99924.12;126281;1092;24442;-54
2021/08/19 03:27:40;;;;;;;6.20;0.90;;;;;;;14.49;73.16;99925.63;126184;1092;22884;-55
2021/08/19 03:30:13;;;;;;;4.70;1.10;;;;;;;14.52;73.63;99930.23;126291;1091;22787;-58
2021/08/19 03:32:45;;;;;;;7.75;1.30;;;;;;;14.51;73.58;99935.08;126046;1093;22760;-57
2021/08/19 03:35:16;;;;;;;3.85;1.00;;;;;;;14.54;73.18;99933.30;125801;1092;22843;-57
2021/08/19 03:37:48;;;;;;;4.20;1.00;;;;;;;14.57;73.30;99930.22;126216;1093;26273;-56
2021/08/19 03:40:19;;;;;;;4.27;1.00;;;;;;;14.59;73.74;99933.27;126127;1093;24417;-57
2021/08/19 03:42:59;;;;;;;3.63;1.10;;;;;;;14.62;73.54;99936.33;126168;1092;22712;-58
2021/08/19 03:45:31;;;;;;;4.90;1.10;;;;;;;14.61;73.32;99932.75;126213;1093;24599;-59
2021/08/19 03:48:03;;;;;;;5.95;1.35;;;;;;;14.62;73.63;99931.48;126286;1092;22815;-57
2021/08/19 03:50:35;;;;;;;5.10;1.10;;;;;;;14.64;73.95;99928.92;126150;1093;22782;-58
2021/08/19 03:53:06;;;;;;;3.70;1.10;;;;;;;14.64;73.64;99930.96;126393;1093;22763;-58
2021/08/19 03:55:38;;;;;;;4.90;1.30;;;;;;;14.67;74.01;99933.50;126195;1093;26280;-55
2021/08/19 03:58:11;;;;;;;5.00;1.13;;;;;;;14.67;74.20;99922.27;126454;1093;22702;-57
2021/08/19 04:00:44;;;;;;;6.00;1.20;;;;;;;14.67;74.13;99922.27;126159;1093;28502;-54
2021/08/19 04:03:18;;;;;;;6.65;1.20;;;;;;;14.70;74.58;99931.71;126249;1092;25957;-59
2021/08/19 04:05:49;;;;;;;7.35;1.55;;;;;;;14.72;74.63;99929.92;125959;1092;22852;-60
2021/08/19 04:08:21;;;;;;;7.85;1.50;;;;;;;14.76;74.46;99929.65;125973;1093;27329;-59
2021/08/19 04:10:53;;;;;;;9.50;1.70;;;;;;;14.80;74.75;99930.15;126307;1093;25800;-53
2021/08/19 04:13:25;;;;;;;5.65;1.25;;;;;;;14.83;74.42;99931.94;126262;1093;22790;-56
2021/08/19 04:15:57;;;;;;;6.20;1.35;;;;;;;14.85;74.53;99930.15;126245;1092;24268;-56
2021/08/19 04:18:29;;;;;;;5.15;1.40;;;;;;;14.89;74.66;99929.88;126235;1091;22761;-55
2021/08/19 04:21:01;;;;;;;4.80;1.40;;;;;;;14.92;74.62;99938.03;126417;1093;26325;-54
2021/08/19 04:23:33;;;;;;;5.65;1.70;;;;;;;14.95;74.71;99939.05;126305;1093;22816;-54
2021/08/19 04:26:05;;;;;;;6.80;1.50;;;;;;;15.00;74.60;99938.28;126308;1093;24407;-54
2021/08/19 04:28:37;;;;;;;4.30;1.40;;;;;;;15.02;74.69;99936.45;126216;1092;27348;-57
2021/08/19 04:31:11;;;;;;;5.25;1.35;;;;;;;15.04;74.81;99933.89;126289;1093;26756;-61
2021/08/19 04:33:42;;;;;;;3.75;1.25;;;;;;;15.07;75.03;99934.91;126124;1093;24605;-57
2021/08/19 04:36:20;;;;;;;4.00;1.30;;;;;;;15.10;74.77;99937.47;126201;1093;24461;-54
2021/08/19 04:38:52;;;;;;;4.75;1.35;;;;;;;15.14;74.74;99932.34;126268;1093;23001;-59
2021/08/19 04:41:23;;;;;;;4.65;1.45;;;;;;;15.19;74.71;99945.59;126218;1093;26280;-57
2021/08/19 04:43:56;;;;;;;5.60;1.40;;;;;;;15.22;75.08;99943.80;126237;1093;24467;-58
2021/08/19 04:46:27;;;;;;;4.80;1.40;;;;;;;15.26;75.37;99944.29;126235;1092;22729;-54
2021/08/19 04:49:05;;;;;;;4.90;1.40;;;;;;;15.30;74.97;99945.55;126159;1092;22782;-56
2021/08/19 04:51:37;;;;;;;4.25;1.45;;;;;;;15.34;75.01;99943.23;126263;1092;22771;-57
2021/08/19 04:54:09;;;;;;;4.70;1.60;;;;;;;15.39;74.93;99947.30;126414;1093;22886;-58
2021/08/19 04:56:40;;;;;;;6.45;1.60;;;;;;;15.42;74.95;99940.63;126159;1093;22784;-57
2021/08/19 04:59:12;;;;;;;4.10;1.25;;;;;;;15.47;75.09;99950.35;126379;1093;22784;-56
2021/08/19 05:01:44;;;;;;;5.23;1.47;;;;;;;15.49;75.29;99948.55;126299;1092;25774;-54
2021/08/19 05:04:16;;;;;;;4.50;1.50;;;;;;;15.52;75.12;99939.05;125971;1093;22787;-57
2021/08/19 05:06:48;;;;;;;4.10;1.50;;;;;;;15.56;75.16;99939.55;126015;1092;22788;-62
2021/08/19 05:09:19;;;;;;;5.93;1.43;;;;;;;15.60;75.18;99940.03;126184;1092;22762;-59
2021/08/19 05:11:55;;;;;;;6.10;1.60;;;;;;;15.65;75.37;99941.28;126167;1092;22757;-57
2021/08/19 05:14:26;;;;;;;5.30;1.45;;;;;;;15.66;75.20;99940.78;126225;1093;22733;-58
2021/08/19 05:16:59;;;;;;;5.20;1.50;;;;;;;15.71;74.79;99936.38;126233;1092;26549;-57
2021/08/19 05:19:30;;;;;;;4.60;1.50;;;;;;;15.72;75.12;99935.88;126417;1093;22768;-56
2021/08/19 05:22:01;;;;;;;5.20;1.70;;;;;;;15.76;74.84;99938.41;126203;1093;22757;-58
2021/08/19 05:24:34;;;;;;;4.30;1.50;;;;;;;15.80;75.55;99938.89;126020;1093;27208;-59
2021/08/19 05:27:07;;;;;;;7.50;1.65;;;;;;;15.82;75.08;99947.58;125972;1092;24458;-58
2021/08/19 05:29:38;;;;;;;8.25;2.05;;;;;;;15.86;75.25;99943.20;126276;1093;22829;-57
2021/08/19 05:32:11;;;;;;;5.47;1.47;;;;;;;15.89;74.98;99936.51;126002;1092;22807;-59
2021/08/19 05:34:44;;;;;;;5.95;1.70;;;;;;;15.92;75.19;99943.92;126219;1092;22884;-60
2021/08/19 05:37:16;;;;;;;4.40;1.40;;;;;;;15.97;75.18;99942.36;125816;1093;22800;-58
2021/08/19 05:39:49;;;;;;;8.15;1.65;;;;;;;16.00;74.72;99944.88;126124;1092;22815;-58
2021/08/19 05:42:21;;;;;;;5.55;1.50;;;;;;;16.04;75.04;99950.22;125941;1092;22843;-56
2021/08/19 05:44:53;;;;;;;10.23;1.77;;;;;;;16.07;74.84;99949.95;125844;1092;22787;-59
2021/08/19 05:47:25;;;;;;;5.55;1.30;;;;;;;16.10;74.76;99943.26;125970;1093;22787;-59
2021/08/19 05:49:57;;;;;;;7.57;1.97;;;;;;;16.14;75.07;99948.59;125897;1093;22787;-61
2021/08/19 05:52:29;;;;;;;5.65;1.70;;;;;;;16.17;74.67;99941.93;126294;1092;22837;-60
2021/08/19 05:55:02;;;;;;;6.10;1.80;;;;;;;16.20;74.63;99944.45;125758;1093;22831;-60
2021/08/19 05:57:34;;;;;;;7.00;1.60;;;;;;;16.24;74.71;99949.05;125873;1093;22813;-60
2021/08/19 06:00:07;;;;;;;8.25;1.80;;;;;;;16.28;74.97;99947.48;125816;1092;22870;-60
2021/08/19 06:02:38;;;;;;;8.85;1.70;;;;;;;16.32;74.98;99952.81;126118;1093;22759;-61
2021/08/19 06:05:12;;;;;;;5.40;1.90;;;;;;;16.35;74.75;99958.16;126038;1092;25851;-61
2021/08/19 06:07:44;;;;;;;8.97;1.50;;;;;;;16.39;74.74;99946.62;126017;1093;22784;-59
2021/08/19 06:10:16;;;;;;;7.83;1.50;;;;;;;16.43;74.47;99959.09;126133;1093;27240;-60
2021/08/19 06:12:48;;;;;;;6.10;1.60;;;;;;;16.47;74.42;99948.30;126142;1092;24410;-59
2021/08/19 06:15:21;;;;;;;4.60;1.27;;;;;;;16.54;74.94;99963.91;125947;1093;22770;-59
2021/08/19 06:17:52;;;;;;;4.20;1.47;;;;;;;16.58;74.46;99948.23;125974;1092;22799;-58
2021/08/19 06:20:24;;;;;;;7.35;1.70;;;;;;;16.63;74.45;99950.25;126052;1093;25835;-61
2021/08/19 06:22:56;;;;;;;8.10;1.77;;;;;;;16.69;74.38;99944.55;126002;1092;22849;-60
2021/08/19 06:25:27;;;;;;;5.40;1.40;;;;;;;16.73;74.58;99954.23;126004;1093;22790;-61
2021/08/19 06:27:58;;;;;;;6.10;1.75;;;;;;;16.78;74.74;99953.40;125962;1093;22726;-60
2021/08/19 06:30:32;;;;;;;6.80;1.70;;;;;;;16.83;74.23;99955.41;125913;1093;22795;-60
2021/08/19 06:33:05;;;;;;;5.10;1.57;;;;;;;16.88;74.14;99948.92;125837;1093;22835;-60
2021/08/19 06:35:38;;;;;;;4.30;1.75;;;;;;;16.93;74.24;99950.93;126085;1093;22812;-61
2021/08/19 06:38:10;;;;;;;5.55;1.70;;;;;;;17.01;74.50;99953.17;126072;1092;22754;-59
2021/08/19 06:40:46;;;;;;;5.20;1.60;;;;;;;17.06;74.03;99958.73;126020;1093;22812;-60
2021/08/19 06:43:17;;;;;;;5.15;1.80;;;;;;;17.12;74.15;99959.43;125994;1093;22843;-61
2021/08/19 06:45:49;;;;;;;4.37;1.47;;;;;;;17.18;74.23;99956.53;125905;1092;25458;-62
2021/08/19 06:48:20;;;;;;;4.40;1.60;;;;;;;17.26;73.90;99951.81;125929;1093;22794;-59
2021/08/19 06:50:52;;;;;;;6.50;2.05;;;;;;;17.33;73.75;99960.45;125849;1093;26479;-60
2021/08/19 06:53:23;;;;;;;6.15;2.00;;;;;;;17.40;74.07;99962.66;125725;1092;27197;-58
2021/08/19 06:55:55;;;;;;;5.55;1.70;;;;;;;17.47;73.66;99958.47;125816;1093;22785;-60
2021/08/19 06:58:26;;;;;;;6.65;1.60;;;;;;;17.55;73.45;99959.41;126006;1092;22745;-60
2021/08/19 07:00:58;;;;;;;6.10;1.80;;;;;;;17.62;73.51;99959.58;125938;1092;22784;-61
2021/08/19 07:03:29;;;;;;;10.65;2.55;;;;;;;17.70;73.38;99954.07;125899;1092;22784;-61
2021/08/19 07:06:01;;;;;;;4.55;1.60;;;;;;;17.78;73.17;99960.63;125788;1093;22761;-63
2021/08/19 07:08:32;;;;;;;4.90;1.80;;;;;;;17.85;73.53;99960.02;126004;1093;28158;-62
2021/08/19 07:11:04;;;;;;;7.75;2.00;;;;;;;17.93;73.06;99948.85;125859;1093;22843;-61
2021/08/19 07:13:36;;;;;;;6.57;2.10;;;;;;;18.02;72.98;99954.11;126016;1093;22867;-61
2021/08/19 07:16:08;;;;;;;4.70;1.80;;;;;;;18.10;72.76;99955.78;125827;1093;22775;-61
2021/08/19 07:18:40;;;;;;;10.00;2.15;;;;;;;18.17;72.58;99957.95;125956;1093;23273;-62
2021/08/19 07:21:12;;;;;;;10.40;2.00;;;;;;;18.25;72.29;99961.67;125907;1093;22795;-60
2021/08/19 07:23:43;;;;;;;5.80;2.25;;;;;;;18.32;72.39;99963.88;125928;1093;27201;-61
2021/08/19 07:26:16;;;;;;;7.50;2.00;;;;;;;18.40;72.21;99961.94;125845;1093;24458;-59
2021/08/19 07:28:48;;;;;;;8.75;2.30;;;;;;;18.49;71.93;99955.91;125841;1091;24462;-61
2021/08/19 07:31:20;;;;;;;8.80;2.10;;;;;;;18.58;71.63;99958.30;126002;1093;22840;-62
2021/08/19 07:33:52;;;;;;;7.03;2.10;;;;;;;18.68;71.33;99952.23;125970;1093;22739;-60
2021/08/19 07:36:23;;;;;;;9.03;1.70;;;;;;;18.77;70.75;99963.88;125814;1092;22800;-59
2021/08/19 07:38:59;;;;;;;7.93;1.90;;;;;;;18.84;70.40;99951.16;125820;1093;22889;-60
2021/08/19 07:41:31;;;;;;;7.97;2.30;;;;;;;18.94;70.34;99955.06;125860;1093;22786;-60
2021/08/19 07:44:02;;;;;;;9.00;2.65;;;;;;;19.00;70.03;99948.00;125878;1092;22848;-59
2021/08/19 07:46:34;;;;;;;5.03;1.87;;;;;;;19.07;69.78;99953.02;125888;1093;22785;-59
2021/08/19 07:49:06;;;;;;;8.90;1.90;;;;;;;19.14;69.49;99948.77;125810;1092;24472;-61
2021/08/19 07:51:37;;;;;;;8.10;2.00;;;;;;;19.20;69.37;99952.25;125913;1093;22793;-60
2021/08/19 07:54:09;;;;;;;8.08;1.90;;;;;;;19.27;69.42;99958.00;125876;1093;22819;-60
2021/08/19 07:56:41;;;;;;;6.43;2.13;;;;;;;19.35;69.00;99956.05;126194;1093;22768;-61
2021/08/19 07:59:12;;;;;;;5.63;1.75;;;;;;;19.44;68.59;99957.67;126130;1093;22781;-60
2021/08/19 08:01:44;;;;;;;4.10;1.63;;;;;;;19.51;67.77;99957.02;125821;1092;22757;-60
2021/08/19 08:04:16;;;;;;;7.97;1.50;;;;;;;19.56;67.65;99958.95;126009;1093;27201;-61
2021/08/19 08:06:47;;;;;;;4.95;1.65;;;;;;;19.61;67.61;99952.41;125890;1093;25868;-62
2021/08/19 08:09:19;;;;;;;6.35;1.75;;;;;;;19.69;67.32;99958.16;125782;1093;22762;-60
2021/08/19 08:11:51;;;;;;;5.78;1.78;;;;;;;19.73;66.22;99962.18;125867;1092;22781;-60
2021/08/19 08:14:23;;;;;;;5.25;2.03;;;;;;;19.77;66.59;99951.27;126000;1093;22787;-61
2021/08/19 08:16:55;;;;;;;7.03;2.00;;;;;;;19.91;66.25;99951.97;125847;1093;22834;-61
2021/08/19 08:19:27;;;;;;;6.83;2.50;;;;;;;20.00;65.87;99949.44;126008;1093;22852;-60
2021/08/19 08:21:59;;;;;;;6.17;2.10;;;;;;;20.06;64.72;99941.56;125940;1093;22733;-60
2021/08/19 08:24:31;;;;;;;7.48;2.08;;;;;;;20.19;65.74;99954.91;126145;1092;22880;-62
2021/08/19 08:27:02;;;;;;;5.60;1.83;;;;;;;20.28;64.84;99954.44;125899;1093;22755;-61
2021/08/19 08:29:34;;;;;;;5.90;1.73;;;;;;;20.35;63.95;99945.25;125767;1093;23277;-59
2021/08/19 08:32:10;;;;;;;8.93;1.93;;;;;;;20.47;64.03;99948.55;125804;1093;22858;-60
2021/08/19 08:34:42;;;;;;;8.40;2.98;;;;;;;20.57;62.90;99953.17;126032;1093;24442;-59
2021/08/19 08:37:13;;;;;;;9.20;2.65;;;;;;;20.69;62.65;99951.56;125835;1092;22787;-61
2021/08/19 08:39:45;;;;;;;5.93;2.00;;;;;;;20.80;61.41;99964.69;125993;1093;23513;-59
2021/08/19 08:42:17;;;;;;;9.88;2.08;;;;;;;20.87;62.01;99952.64;125720;1093;27240;-62
2021/08/19 08:44:48;;;;;;;6.47;2.03;;;;;;;20.86;61.27;99962.45;125782;1093;22844;-60
2021/08/19 08:47:22;;;;;;;4.78;1.55;;;;;;;20.88;61.91;99954.15;125906;1093;23061;-61
2021/08/19 08:49:54;;;;;;;5.83;1.65;;;;;;;20.93;61.59;99962.53;125954;1092;25915;-60
2021/08/19 08:52:27;;;;;;;4.30;1.48;;;;;;;21.01;61.20;99961.80;125872;1093;27416;-61
2021/08/19 08:54:58;;;;;;;5.30;1.53;;;;;;;21.03;60.79;99959.19;125808;1093;26306;-58
2021/08/19 08:57:30;;;;;;;7.37;1.53;;;;;;;21.10;60.91;99953.58;125886;1093;22735;-60
2021/08/19 09:00:02;;;;;;;4.75;1.60;;;;;;;21.25;60.65;99953.64;125974;1093;22860;-61
2021/08/19 09:02:34;;;;;;;6.53;1.63;;;;;;;21.35;59.97;99951.81;126168;1092;22893;-61
2021/08/19 09:05:23;;;;;;;5.53;1.40;;;;;;;21.38;59.80;99955.59;126083;1093;26481;-61
2021/08/19 09:07:57;;;;;;;5.53;1.60;;;;;;;21.43;59.05;99946.16;125927;1093;24475;-59
2021/08/19 09:10:30;;;;;;;5.88;1.48;;;;;;;21.44;59.02;99947.66;125849;1093;26283;-62
2021/08/19 09:13:07;;;;;;;3.70;1.40;;;;;;;21.50;59.01;99946.19;126062;1093;22784;-62
2021/08/19 09:15:39;;;;;;;5.83;1.60;;;;;;;21.56;58.33;99943.93;125922;1092;24522;-61
2021/08/19 09:18:12;;;;;;;5.18;1.20;;;;;;;21.56;57.88;99946.77;125934;1093;22787;-61
2021/08/19 09:20:44;;;;;;;4.07;1.40;;;;;;;21.51;57.84;99946.95;125963;1093;25891;-61
2021/08/19 09:23:18;;;;;;;6.70;1.80;;;;;;;21.40;57.65;99947.27;125901;1093;22908;-59
2021/08/19 09:25:50;;;;;;;5.90;1.40;;;;;;;21.24;56.87;99954.97;125840;1093;22841;-61
2021/08/19 09:28:24;;;;;;;6.43;1.15;;;;;;;21.07;57.06;99960.36;126012;1093;22828;-58
2021/08/19 09:30:57;;;;;;;3.75;1.30;;;;;;;20.90;57.22;99960.03;125998;1093;22737;-59
2021/08/19 09:33:30;;;;;;;4.15;1.40;;;;;;;20.78;55.83;99962.42;125802;1093;22758;-60
2021/08/19 09:36:05;;;;;;;5.75;1.40;;;;;;;20.67;56.27;99962.70;125798;1093;27171;-59
2021/08/19 09:38:42;;;;;;;7.18;1.60;;;;;;;20.61;57.02;99952.84;126173;1093;23354;-59
2021/08/19 09:41:17;;;;;;;4.77;1.50;;;;;;;20.60;57.37;99960.59;125923;1093;22819;-60
2021/08/19 09:43:57;;;;;;;5.20;1.40;;;;;;;20.62;57.61;99965.70;126068;1093;26689;-59
2021/08/19 09:46:38;;;;;;;4.33;1.48;;;;;;;20.72;57.42;99956.14;125896;1093;26612;-59
2021/08/19 09:52:16;;;;;;;7.77;1.60;;;;;;;21.18;56.90;99967.80;126026;1092;22800;-60
2021/08/19 09:54:47;;;;;;;5.70;1.70;;;;;;;21.18;56.72;99964.97;125795;1093;22819;-60
2021/08/19 09:57:23;;;;;;;4.78;1.23;;;;;;;21.11;56.69;99968.51;125864;1092;22768;-60
2021/08/19 09:59:54;;;;;;;8.68;1.73;;;;;;;21.01;56.44;99965.41;125914;1093;22841;-60
2021/08/19 10:02:31;;;;;;;6.50;1.40;;;;;;;20.92;55.66;99978.02;125930;1093;22794;-60
2021/08/19 10:05:02;;;;;;;7.45;1.43;;;;;;;20.82;56.40;99974.17;126124;1093;27198;-61
2021/08/19 10:07:34;;;;;;;7.68;1.30;;;;;;;20.72;55.87;99981.67;125740;1092;26258;-60
2021/08/19 10:10:07;;;;;;;9.93;1.40;;;;;;;20.63;55.71;99984.98;125778;1093;22791;-60
2021/08/19 10:12:43;;;;;;;6.53;1.30;;;;;;;20.57;55.97;99984.38;126153;1093;22770;-61
2021/08/19 10:15:15;;;;;;;5.93;1.38;;;;;;;20.50;55.54;99981.48;125929;1092;22938;-60
2021/08/19 10:17:49;;;;;;;4.40;1.28;;;;;;;20.45;55.24;99988.05;126101;1093;22778;-61
2021/08/19 10:20:24;;;;;;;4.85;1.23;;;;;;;20.43;55.26;99985.77;125889;1092;25726;-61
2021/08/19 10:22:55;;;;;;;4.30;1.35;;;;;;;;;;125856;1093;22805;-60
2021/08/19 10:25:29;;;;;;;6.75;1.70;;;;;;;20.46;55.62;99981.84;126023;1093;22779;-61
2021/08/19 10:28:17;;;;;;;6.65;1.40;;;;;;;20.48;55.46;99984.88;126688;1093;25156;-61
2021/08/19 10:30:54;;;;;;;8.40;1.70;;;;;;;20.55;55.59;99991.91;126271;1093;22785;-60
2021/08/19 10:33:46;;;;;;;5.85;1.30;;;;;;;20.61;55.85;99984.78;125996;1093;26260;-62
2021/08/19 10:36:53;;;;;;;4.80;1.48;;;;;;;20.68;55.59;99989.77;125822;1093;22791;-63
2021/08/19 10:39:43;;;;;;;8.80;1.30;;;;;;;20.74;55.63;99986.78;125808;1093;27205;-61
2021/08/19 10:42:31;;;;;;;7.03;1.23;;;;;;;20.82;55.67;99985.52;125874;1092;22790;-61
2021/08/19 10:45:23;;;;;;;4.33;1.45;;;;;;;20.89;55.70;99984.83;126265;1093;22925;-60
2021/08/19 10:47:55;;;;;;;7.70;1.33;;;;;;;20.96;55.49;99989.01;125724;1093;22794;-59
2021/08/19 10:50:32;;;;;;;5.50;1.43;;;;;;;21.02;55.66;99984.00;125810;1093;22775;-62
2021/08/19 10:53:14;;;;;;;5.33;1.40;;;;;;;21.11;55.20;99986.30;126009;1092;25983;-60
2021/08/19 10:55:48;;;;;;;4.50;1.20;;;;;;;21.21;54.96;99986.57;125907;1092;22853;-61
2021/08/19 10:58:28;;;;;;;6.03;1.40;;;;;;;21.28;54.96;99982.99;126276;1092;22794;-61
2021/08/19 11:01:02;;;;;;;6.28;1.50;;;;;;;21.36;54.74;99989.47;125992;1093;22922;-62
2021/08/19 11:03:46;;;;;;;3.95;1.00;;;;;;;21.37;54.12;99991.77;125934;1093;22792;-62
2021/08/19 11:06:22;;;;;;;8.07;1.30;;;;;;;21.34;53.55;99987.20;125931;1093;22821;-61
2021/08/19 11:08:58;;;;;;;4.38;1.35;;;;;;;21.32;53.69;99992.68;125832;1093;22791;-62
2021/08/19 11:11:32;;;;;;;7.98;1.30;;;;;;;21.33;54.34;99988.50;125795;1093;24002;-57
2021/08/19 11:14:10;;;;;;;3.98;1.18;;;;;;;21.34;53.82;99994.95;125837;1093;23941;-59
2021/08/19 11:16:44;;;;;;;3.28;1.08;;;;;;;21.32;53.59;99995.52;125904;1093;22921;-60
2021/08/19 11:19:27;;;;;;;15.23;6.43;;;;;;;21.28;53.25;99997.19;125883;1092;22848;-61
2021/08/19 11:22:00;;;;;;;6.75;1.30;;;;;;;21.26;53.41;99994.92;125765;1093;22790;-62
2021/08/19 11:24:34;;;;;;;4.43;1.20;;;;;;;21.27;53.22;99993.59;126021;1093;22770;-63
2021/08/19 11:27:09;;;;;;;5.45;1.30;;;;;;;21.28;53.55;99992.28;125736;1093;22790;-60
2021/08/19 11:29:42;;;;;;;5.85;1.20;;;;;;;21.31;53.48;99993.98;125809;1093;22770;-59
2021/08/19 11:32:16;;;;;;;10.45;1.50;;;;;;;21.35;53.51;99990.80;125738;1092;22801;-60
2021/08/19 11:34:51;;;;;;;4.03;1.30;;;;;;;21.37;53.01;99991.77;125724;1093;22793;-61
2021/08/19 11:37:31;;;;;;;5.28;1.50;;;;;;;21.37;53.10;99986.09;125807;1093;22797;-61
2021/08/19 11:40:03;;;;;;;8.18;1.40;;;;;;;21.43;53.40;99994.44;125969;1092;22821;-61
2021/08/19 11:42:36;;;;;;;5.45;1.20;;;;;;;21.50;53.20;99988.02;125965;1092;22770;-62
2021/08/19 11:45:22;;;;;;;8.43;1.30;;;;;;;21.57;53.19;100002.27;125896;1093;22766;-64
2021/08/19 11:47:55;;;;;;;10.25;1.40;;;;;;;21.66;53.12;99998.89;125833;1092;26242;-62
2021/08/19 11:50:27;;;;;;;6.40;1.40;;;;;;;21.74;52.95;99998.94;125722;1093;22767;-62
2021/08/19 11:53:04;;;;;;;8.80;1.08;;;;;;;21.80;52.74;99999.52;125715;1092;25871;-61
2021/08/19 11:55:38;;;;;;;8.08;1.70;;;;;;;21.83;52.92;100000.52;125808;1093;27220;-62